sensor_id;sensor_type;location;lat;lon;timestamp;P1;durP1;ratioP1;P2;durP2;ratioP2
14377;SDS011;7272;53.668;9.578;2023-11-21T00:02:47;17.17;;;11.30;;
14377;SDS011;7272;53.668;9.578;2023-11-21T00:05:48;15.87;;;11.03;;
14377;SDS011;7272;53.668;9.578;2023-11-21T00:08:49;18.00;;;12.90;;
14377;SDS011;7272;53.668;9.578;2023-11-21T00:11:51;15.27;;;10.30;;
14377;SDS011;7272;53.668;9.578;2023-11-21T00:14:52;18.07;;;12.53;;
14377;SDS011;7272;53.668;9.578;2023-11-21T00:17:54;18.37;;;12.40;;
14377;SDS011;7272;53.668;9.578;2023-11-21T00:20:55;18.87;;;11.10;;
14377;SDS011;7272;53.668;9.578;2023-11-21T00:23:59;14.83;;;11.03;;
14377;SDS011;7272;53.668;9.578;2023-11-21T00:27:00;20.70;;;15.60;;
14377;SDS011;7272;53.668;9.578;2023-11-21T00:30:01;17.23;;;13.98;;
14377;SDS011;7272;53.668;9.578;2023-11-21T00:33:05;13.20;;;11.17;;
14377;SDS011;7272;53.668;9.578;2023-11-21T00:36:08;11.43;;;9.27;;
14377;SDS011;7272;53.668;9.578;2023-11-21T00:39:09;9.33;;;8.30;;
14377;SDS011;7272;53.668;9.578;2023-11-21T00:42:12;9.17;;;8.20;;
14377;SDS011;7272;53.668;9.578;2023-11-21T00:45:13;11.23;;;9.40;;
14377;SDS011;7272;53.668;9.578;2023-11-21T00:48:15;11.87;;;8.80;;
14377;SDS011;7272;53.668;9.578;2023-11-21T00:51:16;12.13;;;9.80;;
14377;SDS011;7272;53.668;9.578;2023-11-21T00:54:17;9.67;;;8.50;;
14377;SDS011;7272;53.668;9.578;2023-11-21T00:57:19;12.67;;;10.03;;
14377;SDS011;7272;53.668;9.578;2023-11-21T01:00:20;12.20;;;9.43;;
14377;SDS011;7272;53.668;9.578;2023-11-21T01:03:22;10.10;;;8.20;;
14377;SDS011;7272;53.668;9.578;2023-11-21T01:06:23;9.17;;;6.93;;
14377;SDS011;7272;53.668;9.578;2023-11-21T01:09:24;8.23;;;7.07;;
14377;SDS011;7272;53.668;9.578;2023-11-21T01:12:26;9.53;;;7.23;;
14377;SDS011;7272;53.668;9.578;2023-11-21T01:15:27;11.60;;;8.90;;
14377;SDS011;7272;53.668;9.578;2023-11-21T01:18:29;9.13;;;8.13;;
14377;SDS011;7272;53.668;9.578;2023-11-21T01:21:30;9.93;;;8.00;;
14377;SDS011;7272;53.668;9.578;2023-11-21T01:24:32;6.40;;;5.70;;
14377;SDS011;7272;53.668;9.578;2023-11-21T01:27:33;8.53;;;6.93;;
14377;SDS011;7272;53.668;9.578;2023-11-21T01:30:34;8.00;;;6.77;;
14377;SDS011;7272;53.668;9.578;2023-11-21T01:33:36;8.97;;;7.07;;
14377;SDS011;7272;53.668;9.578;2023-11-21T01:36:37;7.83;;;6.77;;
14377;SDS011;7272;53.668;9.578;2023-11-21T01:39:39;7.13;;;6.33;;
14377;SDS011;7272;53.668;9.578;2023-11-21T01:42:40;9.00;;;6.73;;
14377;SDS011;7272;53.668;9.578;2023-11-21T01:45:43;8.23;;;6.90;;
14377;SDS011;7272;53.668;9.578;2023-11-21T01:48:46;9.57;;;7.50;;
14377;SDS011;7272;53.668;9.578;2023-11-21T01:51:49;11.20;;;8.10;;
14377;SDS011;7272;53.668;9.578;2023-11-21T01:54:52;10.47;;;7.60;;
14377;SDS011;7272;53.668;9.578;2023-11-21T01:57:53;13.17;;;9.33;;
14377;SDS011;7272;53.668;9.578;2023-11-21T02:00:55;12.50;;;8.40;;
14377;SDS011;7272;53.668;9.578;2023-11-21T02:03:57;10.80;;;7.77;;
14377;SDS011;7272;53.668;9.578;2023-11-21T02:06:58;10.23;;;8.07;;
14377;SDS011;7272;53.668;9.578;2023-11-21T02:10:00;10.37;;;8.10;;
14377;SDS011;7272;53.668;9.578;2023-11-21T02:13:01;9.67;;;7.43;;
14377;SDS011;7272;53.668;9.578;2023-11-21T02:16:03;9.10;;;7.17;;
14377;SDS011;7272;53.668;9.578;2023-11-21T02:19:07;10.17;;;7.53;;
14377;SDS011;7272;53.668;9.578;2023-11-21T02:22:11;10.73;;;8.40;;
14377;SDS011;7272;53.668;9.578;2023-11-21T02:25:14;8.97;;;7.77;;
14377;SDS011;7272;53.668;9.578;2023-11-21T02:28:16;12.53;;;8.40;;
14377;SDS011;7272;53.668;9.578;2023-11-21T02:31:26;8.43;;;6.93;;
14377;SDS011;7272;53.668;9.578;2023-11-21T02:34:27;8.03;;;6.70;;
14377;SDS011;7272;53.668;9.578;2023-11-21T02:37:29;7.73;;;6.50;;
14377;SDS011;7272;53.668;9.578;2023-11-21T02:40:31;7.67;;;6.27;;
14377;SDS011;7272;53.668;9.578;2023-11-21T02:43:32;5.80;;;5.20;;
14377;SDS011;7272;53.668;9.578;2023-11-21T02:46:34;5.43;;;4.93;;
14377;SDS011;7272;53.668;9.578;2023-11-21T02:49:35;4.83;;;4.37;;
14377;SDS011;7272;53.668;9.578;2023-11-21T02:52:37;6.63;;;5.17;;
14377;SDS011;7272;53.668;9.578;2023-11-21T02:55:39;5.37;;;4.47;;
14377;SDS011;7272;53.668;9.578;2023-11-21T02:58:41;6.17;;;4.83;;
14377;SDS011;7272;53.668;9.578;2023-11-21T03:01:43;8.07;;;7.28;;
14377;SDS011;7272;53.668;9.578;2023-11-21T03:04:44;7.70;;;7.00;;
14377;SDS011;7272;53.668;9.578;2023-11-21T03:07:45;5.37;;;4.87;;
14377;SDS011;7272;53.668;9.578;2023-11-21T03:10:47;4.73;;;4.17;;
14377;SDS011;7272;53.668;9.578;2023-11-21T03:13:48;5.07;;;4.50;;
14377;SDS011;7272;53.668;9.578;2023-11-21T03:16:50;5.17;;;4.37;;
14377;SDS011;7272;53.668;9.578;2023-11-21T03:19:51;5.03;;;4.53;;
14377;SDS011;7272;53.668;9.578;2023-11-21T03:22:52;6.30;;;4.87;;
14377;SDS011;7272;53.668;9.578;2023-11-21T03:25:55;4.97;;;4.50;;
14377;SDS011;7272;53.668;9.578;2023-11-21T03:28:56;5.60;;;4.50;;
14377;SDS011;7272;53.668;9.578;2023-11-21T03:31:57;5.90;;;5.07;;
14377;SDS011;7272;53.668;9.578;2023-11-21T03:34:58;6.10;;;5.50;;
14377;SDS011;7272;53.668;9.578;2023-11-21T03:38:00;5.87;;;4.83;;
14377;SDS011;7272;53.668;9.578;2023-11-21T03:41:04;7.90;;;6.60;;
14377;SDS011;7272;53.668;9.578;2023-11-21T03:44:06;6.03;;;5.30;;
14377;SDS011;7272;53.668;9.578;2023-11-21T03:47:07;6.03;;;5.43;;
14377;SDS011;7272;53.668;9.578;2023-11-21T03:50:08;6.60;;;5.67;;
14377;SDS011;7272;53.668;9.578;2023-11-21T03:53:10;6.20;;;5.53;;
14377;SDS011;7272;53.668;9.578;2023-11-21T03:56:12;9.02;;;8.23;;
14377;SDS011;7272;53.668;9.578;2023-11-21T03:59:14;9.07;;;8.13;;
14377;SDS011;7272;53.668;9.578;2023-11-21T04:02:16;7.77;;;6.03;;
14377;SDS011;7272;53.668;9.578;2023-11-21T04:05:17;5.73;;;5.17;;
14377;SDS011;7272;53.668;9.578;2023-11-21T04:08:18;6.23;;;5.53;;
14377;SDS011;7272;53.668;9.578;2023-11-21T04:11:20;7.03;;;5.27;;
14377;SDS011;7272;53.668;9.578;2023-11-21T04:14:22;5.80;;;5.20;;
14377;SDS011;7272;53.668;9.578;2023-11-21T04:17:23;6.53;;;5.83;;
14377;SDS011;7272;53.668;9.578;2023-11-21T04:20:24;6.60;;;5.10;;
14377;SDS011;7272;53.668;9.578;2023-11-21T04:23:27;5.63;;;5.10;;
14377;SDS011;7272;53.668;9.578;2023-11-21T04:26:30;5.67;;;4.80;;
14377;SDS011;7272;53.668;9.578;2023-11-21T04:29:31;5.53;;;5.03;;
14377;SDS011;7272;53.668;9.578;2023-11-21T04:32:33;5.73;;;4.77;;
14377;SDS011;7272;53.668;9.578;2023-11-21T04:35:34;6.40;;;5.03;;
14377;SDS011;7272;53.668;9.578;2023-11-21T04:38:35;6.13;;;5.20;;
14377;SDS011;7272;53.668;9.578;2023-11-21T04:41:37;6.17;;;5.00;;
14377;SDS011;7272;53.668;9.578;2023-11-21T04:44:39;6.27;;;5.13;;
14377;SDS011;7272;53.668;9.578;2023-11-21T04:47:41;5.13;;;4.63;;
14377;SDS011;7272;53.668;9.578;2023-11-21T04:50:43;6.47;;;5.57;;
14377;SDS011;7272;53.668;9.578;2023-11-21T04:53:45;5.67;;;5.10;;
14377;SDS011;7272;53.668;9.578;2023-11-21T04:56:47;7.40;;;5.97;;
14377;SDS011;7272;53.668;9.578;2023-11-21T04:59:48;6.17;;;5.00;;
14377;SDS011;7272;53.668;9.578;2023-11-21T05:02:49;5.20;;;4.63;;
14377;SDS011;7272;53.668;9.578;2023-11-21T05:05:50;5.50;;;4.93;;
14377;SDS011;7272;53.668;9.578;2023-11-21T05:08:52;6.10;;;5.00;;
14377;SDS011;7272;53.668;9.578;2023-11-21T05:11:54;6.37;;;5.13;;
14377;SDS011;7272;53.668;9.578;2023-11-21T05:14:55;6.27;;;5.63;;
14377;SDS011;7272;53.668;9.578;2023-11-21T05:17:57;5.23;;;4.73;;
14377;SDS011;7272;53.668;9.578;2023-11-21T05:21:00;7.07;;;5.37;;
14377;SDS011;7272;53.668;9.578;2023-11-21T05:24:01;7.43;;;5.20;;
14377;SDS011;7272;53.668;9.578;2023-11-21T05:27:04;6.03;;;5.00;;
14377;SDS011;7272;53.668;9.578;2023-11-21T05:30:05;5.77;;;4.83;;
14377;SDS011;7272;53.668;9.578;2023-11-21T05:33:09;4.93;;;4.43;;
14377;SDS011;7272;53.668;9.578;2023-11-21T05:36:10;6.10;;;5.13;;
14377;SDS011;7272;53.668;9.578;2023-11-21T05:39:13;5.37;;;4.70;;
14377;SDS011;7272;53.668;9.578;2023-11-21T05:42:18;6.87;;;5.53;;
14377;SDS011;7272;53.668;9.578;2023-11-21T05:45:19;7.03;;;5.83;;
14377;SDS011;7272;53.668;9.578;2023-11-21T05:48:21;6.57;;;5.40;;
14377;SDS011;7272;53.668;9.578;2023-11-21T05:51:23;6.00;;;5.40;;
14377;SDS011;7272;53.668;9.578;2023-11-21T05:54:25;10.20;;;9.10;;
14377;SDS011;7272;53.668;9.578;2023-11-21T05:57:27;9.82;;;8.82;;
14377;SDS011;7272;53.668;9.578;2023-11-21T06:00:28;9.20;;;6.87;;
14377;SDS011;7272;53.668;9.578;2023-11-21T06:03:29;8.53;;;7.00;;
14377;SDS011;7272;53.668;9.578;2023-11-21T06:06:30;7.53;;;6.70;;
14377;SDS011;7272;53.668;9.578;2023-11-21T06:09:31;8.27;;;6.27;;
14377;SDS011;7272;53.668;9.578;2023-11-21T06:12:33;9.27;;;7.03;;
14377;SDS011;7272;53.668;9.578;2023-11-21T06:15:36;8.67;;;6.93;;
14377;SDS011;7272;53.668;9.578;2023-11-21T06:18:37;7.17;;;6.30;;
14377;SDS011;7272;53.668;9.578;2023-11-21T06:21:38;7.10;;;5.60;;
14377;SDS011;7272;53.668;9.578;2023-11-21T06:24:39;6.33;;;5.63;;
14377;SDS011;7272;53.668;9.578;2023-11-21T06:27:43;8.67;;;6.33;;
14377;SDS011;7272;53.668;9.578;2023-11-21T06:30:46;6.77;;;6.07;;
14377;SDS011;7272;53.668;9.578;2023-11-21T06:33:47;8.07;;;6.27;;
14377;SDS011;7272;53.668;9.578;2023-11-21T06:36:48;8.57;;;6.80;;
14377;SDS011;7272;53.668;9.578;2023-11-21T06:39:49;7.83;;;7.03;;
14377;SDS011;7272;53.668;9.578;2023-11-21T06:42:53;9.77;;;7.57;;
14377;SDS011;7272;53.668;9.578;2023-11-21T06:45:54;8.20;;;6.97;;
14377;SDS011;7272;53.668;9.578;2023-11-21T06:48:55;8.53;;;7.47;;
14377;SDS011;7272;53.668;9.578;2023-11-21T06:51:56;8.93;;;7.03;;
14377;SDS011;7272;53.668;9.578;2023-11-21T06:54:58;9.47;;;7.67;;
14377;SDS011;7272;53.668;9.578;2023-11-21T06:58:00;11.30;;;8.03;;
14377;SDS011;7272;53.668;9.578;2023-11-21T07:01:01;9.63;;;8.37;;
14377;SDS011;7272;53.668;9.578;2023-11-21T07:04:03;11.23;;;8.98;;
14377;SDS011;7272;53.668;9.578;2023-11-21T07:07:04;9.97;;;7.80;;
14377;SDS011;7272;53.668;9.578;2023-11-21T07:10:07;10.97;;;8.07;;
14377;SDS011;7272;53.668;9.578;2023-11-21T07:13:09;9.03;;;8.07;;
14377;SDS011;7272;53.668;9.578;2023-11-21T07:16:12;9.53;;;7.93;;
14377;SDS011;7272;53.668;9.578;2023-11-21T07:19:15;8.97;;;7.17;;
14377;SDS011;7272;53.668;9.578;2023-11-21T07:22:16;8.80;;;7.90;;
14377;SDS011;7272;53.668;9.578;2023-11-21T07:25:21;9.87;;;8.07;;
14377;SDS011;7272;53.668;9.578;2023-11-21T07:28:24;10.97;;;8.00;;
14377;SDS011;7272;53.668;9.578;2023-11-21T07:31:26;8.50;;;7.60;;
14377;SDS011;7272;53.668;9.578;2023-11-21T07:34:27;11.30;;;7.33;;
14377;SDS011;7272;53.668;9.578;2023-11-21T07:37:29;9.43;;;7.87;;
14377;SDS011;7272;53.668;9.578;2023-11-21T07:40:30;10.50;;;8.00;;
14377;SDS011;7272;53.668;9.578;2023-11-21T07:43:32;10.23;;;8.37;;
14377;SDS011;7272;53.668;9.578;2023-11-21T07:46:35;8.70;;;7.20;;
14377;SDS011;7272;53.668;9.578;2023-11-21T07:49:36;8.13;;;6.80;;
14377;SDS011;7272;53.668;9.578;2023-11-21T07:52:37;9.30;;;6.90;;
14377;SDS011;7272;53.668;9.578;2023-11-21T07:55:38;6.50;;;5.90;;
14377;SDS011;7272;53.668;9.578;2023-11-21T07:58:41;8.73;;;6.90;;
14377;SDS011;7272;53.668;9.578;2023-11-21T08:01:42;8.70;;;6.23;;
14377;SDS011;7272;53.668;9.578;2023-11-21T08:04:43;6.77;;;6.17;;
14377;SDS011;7272;53.668;9.578;2023-11-21T08:07:45;7.00;;;5.63;;
14377;SDS011;7272;53.668;9.578;2023-11-21T08:10:46;6.63;;;5.45;;
14377;SDS011;7272;53.668;9.578;2023-11-21T08:13:56;5.93;;;5.43;;
14377;SDS011;7272;53.668;9.578;2023-11-21T08:16:59;8.85;;;7.95;;
14377;SDS011;7272;53.668;9.578;2023-11-21T08:20:00;6.57;;;5.80;;
14377;SDS011;7272;53.668;9.578;2023-11-21T08:23:03;5.87;;;5.37;;
14377;SDS011;7272;53.668;9.578;2023-11-21T08:26:06;6.97;;;5.57;;
14377;SDS011;7272;53.668;9.578;2023-11-21T08:29:07;7.50;;;6.03;;
14377;SDS011;7272;53.668;9.578;2023-11-21T08:32:09;5.90;;;5.30;;
14377;SDS011;7272;53.668;9.578;2023-11-21T08:35:10;7.77;;;6.57;;
14377;SDS011;7272;53.668;9.578;2023-11-21T08:38:12;6.47;;;5.57;;
14377;SDS011;7272;53.668;9.578;2023-11-21T08:41:13;7.17;;;6.23;;
14377;SDS011;7272;53.668;9.578;2023-11-21T08:44:16;5.73;;;5.13;;
14377;SDS011;7272;53.668;9.578;2023-11-21T08:47:19;5.30;;;4.80;;
14377;SDS011;7272;53.668;9.578;2023-11-21T08:50:20;5.23;;;4.73;;
14377;SDS011;7272;53.668;9.578;2023-11-21T08:53:21;5.93;;;4.27;;
14377;SDS011;7272;53.668;9.578;2023-11-21T08:56:22;5.23;;;4.73;;
14377;SDS011;7272;53.668;9.578;2023-11-21T08:59:24;4.70;;;4.20;;
14377;SDS011;7272;53.668;9.578;2023-11-21T09:02:25;6.90;;;4.87;;
14377;SDS011;7272;53.668;9.578;2023-11-21T09:05:27;5.10;;;4.23;;
14377;SDS011;7272;53.668;9.578;2023-11-21T09:08:28;5.90;;;4.40;;
14377;SDS011;7272;53.668;9.578;2023-11-21T09:11:29;4.83;;;4.33;;
14377;SDS011;7272;53.668;9.578;2023-11-21T09:14:34;8.53;;;5.33;;
14377;SDS011;7272;53.668;9.578;2023-11-21T09:17:35;5.40;;;4.90;;
14377;SDS011;7272;53.668;9.578;2023-11-21T09:20:36;7.60;;;4.97;;
14377;SDS011;7272;53.668;9.578;2023-11-21T09:23:38;5.60;;;5.07;;
14377;SDS011;7272;53.668;9.578;2023-11-21T09:26:39;6.75;;;6.15;;
14377;SDS011;7272;53.668;9.578;2023-11-21T09:29:41;6.15;;;5.65;;
14377;SDS011;7272;53.668;9.578;2023-11-21T09:32:42;5.10;;;3.93;;
14377;SDS011;7272;53.668;9.578;2023-11-21T09:35:45;6.13;;;4.70;;
14377;SDS011;7272;53.668;9.578;2023-11-21T09:38:47;5.17;;;4.67;;
14377;SDS011;7272;53.668;9.578;2023-11-21T09:41:50;5.03;;;4.63;;
14377;SDS011;7272;53.668;9.578;2023-11-21T09:44:56;4.57;;;3.90;;
14377;SDS011;7272;53.668;9.578;2023-11-21T09:48:05;4.37;;;3.97;;
14377;SDS011;7272;53.668;9.578;2023-11-21T09:51:07;4.87;;;4.03;;
14377;SDS011;7272;53.668;9.578;2023-11-21T09:54:09;5.43;;;4.10;;
14377;SDS011;7272;53.668;9.578;2023-11-21T09:57:11;5.57;;;4.60;;
14377;SDS011;7272;53.668;9.578;2023-11-21T10:00:15;4.10;;;3.70;;
14377;SDS011;7272;53.668;9.578;2023-11-21T10:03:18;4.53;;;3.60;;
14377;SDS011;7272;53.668;9.578;2023-11-21T10:06:19;3.60;;;3.30;;
14377;SDS011;7272;53.668;9.578;2023-11-21T10:09:21;3.27;;;2.97;;
14377;SDS011;7272;53.668;9.578;2023-11-21T10:12:24;3.63;;;3.33;;
14377;SDS011;7272;53.668;9.578;2023-11-21T10:15:28;4.17;;;3.77;;
14377;SDS011;7272;53.668;9.578;2023-11-21T10:18:31;6.17;;;3.47;;
14377;SDS011;7272;53.668;9.578;2023-11-21T10:21:34;3.40;;;3.10;;
14377;SDS011;7272;53.668;9.578;2023-11-21T10:24:35;4.23;;;3.67;;
14377;SDS011;7272;53.668;9.578;2023-11-21T10:27:37;3.70;;;3.40;;
14377;SDS011;7272;53.668;9.578;2023-11-21T10:30:40;3.70;;;3.37;;
14377;SDS011;7272;53.668;9.578;2023-11-21T10:33:41;4.60;;;3.80;;
14377;SDS011;7272;53.668;9.578;2023-11-21T10:36:42;4.33;;;3.60;;
14377;SDS011;7272;53.668;9.578;2023-11-21T10:39:43;5.13;;;4.72;;
14377;SDS011;7272;53.668;9.578;2023-11-21T10:42:45;4.20;;;3.80;;
14377;SDS011;7272;53.668;9.578;2023-11-21T10:45:48;4.10;;;3.70;;
14377;SDS011;7272;53.668;9.578;2023-11-21T10:48:51;4.30;;;3.90;;
14377;SDS011;7272;53.668;9.578;2023-11-21T10:51:56;4.70;;;3.67;;
14377;SDS011;7272;53.668;9.578;2023-11-21T10:54:57;3.50;;;3.20;;
14377;SDS011;7272;53.668;9.578;2023-11-21T10:57:59;4.33;;;3.93;;
14377;SDS011;7272;53.668;9.578;2023-11-21T11:01:03;5.13;;;3.80;;
14377;SDS011;7272;53.668;9.578;2023-11-21T11:04:07;4.30;;;3.30;;
14377;SDS011;7272;53.668;9.578;2023-11-21T11:07:14;4.27;;;3.87;;
14377;SDS011;7272;53.668;9.578;2023-11-21T11:10:17;2.93;;;2.70;;
14377;SDS011;7272;53.668;9.578;2023-11-21T11:13:21;2.70;;;2.50;;
14377;SDS011;7272;53.668;9.578;2023-11-21T11:16:23;2.40;;;2.20;;
14377;SDS011;7272;53.668;9.578;2023-11-21T11:19:26;2.80;;;2.43;;
14377;SDS011;7272;53.668;9.578;2023-11-21T11:22:29;3.20;;;2.67;;
14377;SDS011;7272;53.668;9.578;2023-11-21T11:25:41;2.40;;;1.83;;
14377;SDS011;7272;53.668;9.578;2023-11-21T11:28:56;2.87;;;1.97;;
14377;SDS011;7272;53.668;9.578;2023-11-21T11:32:11;2.90;;;2.70;;
14377;SDS011;7272;53.668;9.578;2023-11-21T11:35:23;2.10;;;2.00;;
14377;SDS011;7272;53.668;9.578;2023-11-21T11:38:33;3.37;;;2.00;;
14377;SDS011;7272;53.668;9.578;2023-11-21T11:41:35;1.87;;;1.77;;
14377;SDS011;7272;53.668;9.578;2023-11-21T11:44:47;1.73;;;1.63;;
14377;SDS011;7272;53.668;9.578;2023-11-21T11:47:56;1.70;;;1.60;;
14377;SDS011;7272;53.668;9.578;2023-11-21T11:51:01;2.95;;;2.75;;
14377;SDS011;7272;53.668;9.578;2023-11-21T11:54:06;2.70;;;2.50;;
14377;SDS011;7272;53.668;9.578;2023-11-21T11:57:07;1.70;;;1.60;;
14377;SDS011;7272;53.668;9.578;2023-11-21T12:00:12;1.60;;;1.50;;
14377;SDS011;7272;53.668;9.578;2023-11-21T12:03:19;1.60;;;1.50;;
14377;SDS011;7272;53.668;9.578;2023-11-21T12:06:30;3.03;;;2.40;;
14377;SDS011;7272;53.668;9.578;2023-11-21T12:09:33;1.80;;;1.70;;
14377;SDS011;7272;53.668;9.578;2023-11-21T12:12:37;2.97;;;2.10;;
14377;SDS011;7272;53.668;9.578;2023-11-21T12:15:39;2.60;;;2.40;;
14377;SDS011;7272;53.668;9.578;2023-11-21T12:18:42;2.50;;;2.30;;
14377;SDS011;7272;53.668;9.578;2023-11-21T12:21:43;2.40;;;2.20;;
14377;SDS011;7272;53.668;9.578;2023-11-21T12:24:45;2.17;;;1.90;;
14377;SDS011;7272;53.668;9.578;2023-11-21T12:27:46;1.90;;;1.80;;
14377;SDS011;7272;53.668;9.578;2023-11-21T12:30:49;2.83;;;2.00;;
14377;SDS011;7272;53.668;9.578;2023-11-21T12:33:51;2.57;;;2.20;;
14377;SDS011;7272;53.668;9.578;2023-11-21T12:36:53;2.77;;;2.10;;
14377;SDS011;7272;53.668;9.578;2023-11-21T12:39:55;1.83;;;1.70;;
14377;SDS011;7272;53.668;9.578;2023-11-21T12:42:59;1.90;;;1.80;;
14377;SDS011;7272;53.668;9.578;2023-11-21T12:46:04;2.10;;;2.00;;
14377;SDS011;7272;53.668;9.578;2023-11-21T12:49:07;4.33;;;2.20;;
14377;SDS011;7272;53.668;9.578;2023-11-21T12:52:08;3.17;;;2.20;;
14377;SDS011;7272;53.668;9.578;2023-11-21T12:55:09;2.00;;;1.90;;
14377;SDS011;7272;53.668;9.578;2023-11-21T12:58:15;2.20;;;2.00;;
14377;SDS011;7272;53.668;9.578;2023-11-21T13:01:16;2.10;;;1.87;;
14377;SDS011;7272;53.668;9.578;2023-11-21T13:04:19;2.07;;;1.90;;
14377;SDS011;7272;53.668;9.578;2023-11-21T13:07:20;1.87;;;1.77;;
14377;SDS011;7272;53.668;9.578;2023-11-21T13:10:23;1.93;;;1.73;;
14377;SDS011;7272;53.668;9.578;2023-11-21T13:13:28;1.90;;;1.80;;
14377;SDS011;7272;53.668;9.578;2023-11-21T13:16:29;2.37;;;2.17;;
14377;SDS011;7272;53.668;9.578;2023-11-21T13:19:32;2.43;;;2.23;;
14377;SDS011;7272;53.668;9.578;2023-11-21T13:22:33;1.90;;;1.80;;
14377;SDS011;7272;53.668;9.578;2023-11-21T13:25:35;1.80;;;1.70;;
14377;SDS011;7272;53.668;9.578;2023-11-21T13:28:37;2.40;;;2.03;;
14377;SDS011;7272;53.668;9.578;2023-11-21T13:31:40;2.97;;;1.90;;
14377;SDS011;7272;53.668;9.578;2023-11-21T13:34:43;2.00;;;1.90;;
14377;SDS011;7272;53.668;9.578;2023-11-21T13:37:48;3.23;;;2.13;;
14377;SDS011;7272;53.668;9.578;2023-11-21T13:40:52;2.33;;;2.13;;
14377;SDS011;7272;53.668;9.578;2023-11-21T13:43:54;2.43;;;2.00;;
14377;SDS011;7272;53.668;9.578;2023-11-21T13:47:03;2.17;;;1.97;;
14377;SDS011;7272;53.668;9.578;2023-11-21T13:50:07;2.10;;;2.00;;
14377;SDS011;7272;53.668;9.578;2023-11-21T13:53:17;2.40;;;2.20;;
14377;SDS011;7272;53.668;9.578;2023-11-21T13:56:22;2.80;;;2.50;;
14377;SDS011;7272;53.668;9.578;2023-11-21T13:59:24;2.20;;;2.10;;
14377;SDS011;7272;53.668;9.578;2023-11-21T14:02:28;2.33;;;2.13;;
14377;SDS011;7272;53.668;9.578;2023-11-21T14:05:35;2.57;;;2.40;;
14377;SDS011;7272;53.668;9.578;2023-11-21T14:08:36;2.70;;;2.50;;
14377;SDS011;7272;53.668;9.578;2023-11-21T14:11:38;2.67;;;2.27;;
14377;SDS011;7272;53.668;9.578;2023-11-21T14:14:39;2.70;;;2.50;;
14377;SDS011;7272;53.668;9.578;2023-11-21T14:17:41;2.50;;;2.30;;
14377;SDS011;7272;53.668;9.578;2023-11-21T14:20:43;2.40;;;2.23;;
14377;SDS011;7272;53.668;9.578;2023-11-21T14:23:44;2.60;;;2.40;;
14377;SDS011;7272;53.668;9.578;2023-11-21T14:26:46;2.60;;;2.40;;
14377;SDS011;7272;53.668;9.578;2023-11-21T14:29:48;3.47;;;2.80;;
14377;SDS011;7272;53.668;9.578;2023-11-21T14:32:49;3.67;;;3.03;;
14377;SDS011;7272;53.668;9.578;2023-11-21T14:35:51;4.37;;;3.27;;
14377;SDS011;7272;53.668;9.578;2023-11-21T14:38:52;3.67;;;2.73;;
14377;SDS011;7272;53.668;9.578;2023-11-21T14:41:54;3.13;;;2.90;;
14377;SDS011;7272;53.668;9.578;2023-11-21T14:44:56;3.63;;;3.10;;
14377;SDS011;7272;53.668;9.578;2023-11-21T14:48:04;3.30;;;3.10;;
14377;SDS011;7272;53.668;9.578;2023-11-21T14:51:16;3.33;;;2.90;;
14377;SDS011;7272;53.668;9.578;2023-11-21T14:54:27;3.87;;;2.80;;
14377;SDS011;7272;53.668;9.578;2023-11-21T14:57:41;2.83;;;2.63;;
14377;SDS011;7272;53.668;9.578;2023-11-21T15:00:46;3.07;;;2.67;;
14377;SDS011;7272;53.668;9.578;2023-11-21T15:03:48;3.10;;;2.80;;
14377;SDS011;7272;53.668;9.578;2023-11-21T15:06:51;2.90;;;2.70;;
14377;SDS011;7272;53.668;9.578;2023-11-21T15:09:53;2.97;;;2.60;;
14377;SDS011;7272;53.668;9.578;2023-11-21T15:12:54;2.80;;;2.60;;
14377;SDS011;7272;53.668;9.578;2023-11-21T15:15:57;3.10;;;2.77;;
14377;SDS011;7272;53.668;9.578;2023-11-21T15:19:07;3.40;;;2.77;;
14377;SDS011;7272;53.668;9.578;2023-11-21T15:22:10;2.70;;;2.50;;
14377;SDS011;7272;53.668;9.578;2023-11-21T15:25:15;3.03;;;2.83;;
14377;SDS011;7272;53.668;9.578;2023-11-21T15:28:16;2.50;;;2.30;;
14377;SDS011;7272;53.668;9.578;2023-11-21T15:31:19;3.10;;;2.73;;
14377;SDS011;7272;53.668;9.578;2023-11-21T15:34:22;4.03;;;3.33;;
14377;SDS011;7272;53.668;9.578;2023-11-21T15:37:24;3.83;;;3.40;;
14377;SDS011;7272;53.668;9.578;2023-11-21T15:40:27;3.40;;;3.10;;
14377;SDS011;7272;53.668;9.578;2023-11-21T15:43:29;3.30;;;3.00;;
14377;SDS011;7272;53.668;9.578;2023-11-21T15:46:30;3.13;;;2.90;;
14377;SDS011;7272;53.668;9.578;2023-11-21T15:49:31;3.50;;;3.20;;
14377;SDS011;7272;53.668;9.578;2023-11-21T15:52:36;3.10;;;2.80;;
14377;SDS011;7272;53.668;9.578;2023-11-21T15:55:37;4.17;;;3.53;;
14377;SDS011;7272;53.668;9.578;2023-11-21T15:58:42;5.47;;;3.97;;
14377;SDS011;7272;53.668;9.578;2023-11-21T16:01:44;5.67;;;4.40;;
14377;SDS011;7272;53.668;9.578;2023-11-21T16:04:47;5.40;;;4.10;;
14377;SDS011;7272;53.668;9.578;2023-11-21T16:07:48;3.90;;;3.50;;
14377;SDS011;7272;53.668;9.578;2023-11-21T16:10:50;4.93;;;3.57;;
14377;SDS011;7272;53.668;9.578;2023-11-21T16:13:52;4.10;;;3.70;;
14377;SDS011;7272;53.668;9.578;2023-11-21T16:16:53;4.73;;;4.30;;
14377;SDS011;7272;53.668;9.578;2023-11-21T16:19:55;4.10;;;3.80;;
14377;SDS011;7272;53.668;9.578;2023-11-21T16:22:57;4.20;;;3.73;;
14377;SDS011;7272;53.668;9.578;2023-11-21T16:25:58;5.10;;;4.27;;
14377;SDS011;7272;53.668;9.578;2023-11-21T16:28:59;4.03;;;3.63;;
14377;SDS011;7272;53.668;9.578;2023-11-21T16:32:01;4.03;;;3.63;;
14377;SDS011;7272;53.668;9.578;2023-11-21T16:35:03;3.57;;;3.23;;
14377;SDS011;7272;53.668;9.578;2023-11-21T16:38:06;6.80;;;4.50;;
14377;SDS011;7272;53.668;9.578;2023-11-21T16:41:07;4.20;;;3.80;;
14377;SDS011;7272;53.668;9.578;2023-11-21T16:44:12;4.80;;;3.60;;
14377;SDS011;7272;53.668;9.578;2023-11-21T16:47:15;4.17;;;3.10;;
14377;SDS011;7272;53.668;9.578;2023-11-21T16:50:17;4.13;;;3.83;;
14377;SDS011;7272;53.668;9.578;2023-11-21T16:53:19;4.73;;;4.23;;
14377;SDS011;7272;53.668;9.578;2023-11-21T16:56:20;3.40;;;3.10;;
14377;SDS011;7272;53.668;9.578;2023-11-21T16:59:21;3.97;;;3.43;;
14377;SDS011;7272;53.668;9.578;2023-11-21T17:02:22;5.97;;;3.55;;
14377;SDS011;7272;53.668;9.578;2023-11-21T17:05:23;3.80;;;3.30;;
14377;SDS011;7272;53.668;9.578;2023-11-21T17:08:26;4.43;;;4.03;;
14377;SDS011;7272;53.668;9.578;2023-11-21T17:11:28;3.53;;;3.23;;
14377;SDS011;7272;53.668;9.578;2023-11-21T17:14:29;3.60;;;3.30;;
14377;SDS011;7272;53.668;9.578;2023-11-21T17:17:30;3.33;;;3.03;;
14377;SDS011;7272;53.668;9.578;2023-11-21T17:20:32;4.63;;;3.10;;
14377;SDS011;7272;53.668;9.578;2023-11-21T17:23:33;4.77;;;3.97;;
14377;SDS011;7272;53.668;9.578;2023-11-21T17:26:35;6.67;;;3.63;;
14377;SDS011;7272;53.668;9.578;2023-11-21T17:29:36;4.13;;;3.50;;
14377;SDS011;7272;53.668;9.578;2023-11-21T17:32:37;4.47;;;3.80;;
14377;SDS011;7272;53.668;9.578;2023-11-21T17:35:38;4.67;;;3.63;;
14377;SDS011;7272;53.668;9.578;2023-11-21T17:38:40;4.17;;;3.77;;
14377;SDS011;7272;53.668;9.578;2023-11-21T17:41:42;3.87;;;3.47;;
14377;SDS011;7272;53.668;9.578;2023-11-21T17:44:43;4.17;;;3.77;;
14377;SDS011;7272;53.668;9.578;2023-11-21T17:47:45;4.33;;;3.60;;
14377;SDS011;7272;53.668;9.578;2023-11-21T17:50:47;4.53;;;3.83;;
14377;SDS011;7272;53.668;9.578;2023-11-21T17:53:48;4.57;;;3.73;;
14377;SDS011;7272;53.668;9.578;2023-11-21T17:56:50;6.77;;;3.70;;
14377;SDS011;7272;53.668;9.578;2023-11-21T17:59:51;3.80;;;3.17;;
14377;SDS011;7272;53.668;9.578;2023-11-21T18:02:52;4.70;;;3.33;;
14377;SDS011;7272;53.668;9.578;2023-11-21T18:05:53;4.10;;;3.70;;
14377;SDS011;7272;53.668;9.578;2023-11-21T18:08:55;4.17;;;3.70;;
14377;SDS011;7272;53.668;9.578;2023-11-21T18:11:58;2.63;;;2.43;;
14377;SDS011;7272;53.668;9.578;2023-11-21T18:14:59;5.23;;;3.20;;
14377;SDS011;7272;53.668;9.578;2023-11-21T18:18:00;4.57;;;3.93;;
14377;SDS011;7272;53.668;9.578;2023-11-21T18:21:01;3.20;;;2.90;;
14377;SDS011;7272;53.668;9.578;2023-11-21T18:24:04;4.50;;;3.63;;
14377;SDS011;7272;53.668;9.578;2023-11-21T18:27:06;5.20;;;4.17;;
14377;SDS011;7272;53.668;9.578;2023-11-21T18:30:08;2.67;;;2.47;;
14377;SDS011;7272;53.668;9.578;2023-11-21T18:33:10;3.50;;;2.90;;
14377;SDS011;7272;53.668;9.578;2023-11-21T18:36:12;2.90;;;2.70;;